Time;durP1;ratioP1;P1;durP2;ratioP2;P2;SDS_P1;SDS_P2;PMS_P1;PMS_P2;Temp;Humidity;BMP_temperature;BMP_pressure;BME280_temperature;BME280_humidity;BME280_pressure;Samples;Min_cycle;Max_cycle;Signal;HPM_P1;HPM_P2
2023/01/20 00:00:12;;;;;;;18.57;2.67;;;;;;;;;;5032996;28;20033;-61
2023/01/20 00:02:39;;;;;;;3.73;1.97;;;;;;;;;;5032734;28;20147;-61
2023/01/20 00:05:06;;;;;;;4.00;1.87;;;;;;;;;;5032403;28;20040;-61
2023/01/20 00:07:34;;;;;;;2.93;1.77;;;;;;;;;;5027424;28;20030;-60
2023/01/20 00:10:02;;;;;;;3.87;2.13;;;;;;;;;;5027368;28;20473;-60
2023/01/20 00:12:30;;;;;;;4.87;2.33;;;;;;;;;;5043466;28;20045;-61
2023/01/20 00:14:57;;;;;;;3.53;2.37;;;;;;;;;;5027418;28;20087;-60
2023/01/20 00:17:24;;;;;;;2.50;1.63;;;;;;;;;;5038282;28;20017;-60
2023/01/20 00:19:51;;;;;;;3.93;2.30;;;;;;;;;;5047955;28;20032;-60
2023/01/20 00:22:18;;;;;;;3.13;2.03;;;;;;;;;;5048303;28;20037;-60
2023/01/20 00:24:44;;;;;;;3.53;2.30;;;;;;;;;;5051083;28;20064;-60
2023/01/20 00:27:11;;;;;;;5.93;1.83;;;;;;;;;;5038779;28;20022;-60
2023/01/20 00:29:38;;;;;;;7.57;2.73;;;;;;;;;;5029908;28;20033;-61
2023/01/20 00:32:04;;;;;;;4.20;2.00;;;;;;;;;;5030057;28;20041;-60
2023/01/20 00:34:31;;;;;;;3.80;2.37;;;;;;;;;;5029964;28;20041;-61
2023/01/20 00:36:58;;;;;;;2.47;1.50;;;;;;;;;;5031339;28;20061;-61
2023/01/20 00:39:24;;;;;;;3.83;2.10;;;;;;;;;;5035437;28;20075;-60
2023/01/20 00:41:51;;;;;;;4.07;2.10;;;;;;;;;;5046029;28;20017;-60
2023/01/20 00:44:18;;;;;;;3.93;2.13;;;;;;;;;;5044583;28;20452;-60
2023/01/20 00:46:44;;;;;;;8.40;2.77;;;;;;;;;;5035567;28;20079;-60
2023/01/20 00:49:11;;;;;;;8.90;3.37;;;;;;;;;;5035045;28;20021;-60
2023/01/20 00:51:38;;;;;;;5.83;3.13;;;;;;;;;;5030861;28;20026;-60
2023/01/20 00:54:05;;;;;;;6.00;2.60;;;;;;;;;;5030090;28;20601;-60
2023/01/20 00:56:32;;;;;;;4.30;2.20;;;;;;;;;;5029692;28;20182;-60
2023/01/20 00:58:58;;;;;;;4.10;2.40;;;;;;;;;;5034802;28;20500;-60
2023/01/20 01:01:25;;;;;;;11.53;2.73;;;;;;;;;;5053020;28;20029;-60
2023/01/20 01:03:56;;;;;;;5.80;3.03;;;;;;;;;;5054381;28;20032;-62
2023/01/20 01:06:22;;;;;;;4.13;2.10;;;;;;;;;;5044892;28;20060;-63
2023/01/20 01:08:49;;;;;;;4.70;2.17;;;;;;;;;;5048509;28;20118;-60
2023/01/20 01:11:16;;;;;;;3.63;1.97;;;;;;;;;;5038402;28;20048;-60
2023/01/20 01:13:43;;;;;;;2.80;1.67;;;;;;;;;;5034953;28;20013;-60
2023/01/20 01:16:11;;;;;;;3.33;2.00;;;;;;;;;;5045344;28;20059;-60
2023/01/20 01:18:38;;;;;;;3.87;1.80;;;;;;;;;;5029575;28;20476;-63
2023/01/20 01:21:08;;;;;;;5.50;2.27;;;;;;;;;;5029077;28;20107;-63
2023/01/20 01:23:35;;;;;;;2.00;1.63;;;;;;;;;;5032519;28;20037;-63
2023/01/20 01:26:02;;;;;;;4.33;2.43;;;;;;;;;;5034406;28;20020;-63
2023/01/20 01:28:28;;;;;;;4.00;2.50;;;;;;;;;;5034585;28;20503;-61
2023/01/20 01:30:55;;;;;;;6.30;3.57;;;;;;;;;;5034562;28;20024;-60
2023/01/20 01:33:22;;;;;;;6.90;3.87;;;;;;;;;;5034537;28;20373;-60
2023/01/20 01:35:55;;;;;;;6.50;2.07;;;;;;;;;;5036402;28;20035;-62
2023/01/20 01:38:22;;;;;;;5.03;2.40;;;;;;;;;;5046435;28;20036;-63
2023/01/20 01:40:49;;;;;;;2.37;1.60;;;;;;;;;;5048720;28;20025;-62
2023/01/20 01:43:26;;;;;;;8.30;2.30;;;;;;;;;;5032146;28;20041;-63
2023/01/20 01:45:53;;;;;;;3.13;2.00;;;;;;;;;;5036135;28;20025;-63
2023/01/20 01:48:29;;;;;;;3.43;2.07;;;;;;;;;;5035175;28;20431;-62
2023/01/20 01:50:58;;;;;;;18.00;3.47;;;;;;;;;;5035501;28;20025;-62
2023/01/20 01:53:25;;;;;;;3.93;2.73;;;;;;;;;;5033985;28;20365;-63
2023/01/20 01:55:56;;;;;;;10.73;3.53;;;;;;;;;;5034209;28;20091;-62
2023/01/20 01:58:25;;;;;;;7.27;2.83;;;;;;;;;;5030428;28;20033;-60
2023/01/20 02:00:52;;;;;;;3.27;2.37;;;;;;;;;;5028669;28;20025;-62
2023/01/20 02:03:19;;;;;;;3.67;2.27;;;;;;;;;;5030465;28;20041;-63
2023/01/20 02:05:48;;;;;;;6.80;3.47;;;;;;;;;;5029463;28;20125;-60
2023/01/20 02:08:15;;;;;;;13.43;2.53;;;;;;;;;;5048129;28;20130;-62
2023/01/20 02:10:42;;;;;;;6.00;2.33;;;;;;;;;;5053274;28;20071;-60
2023/01/20 02:13:08;;;;;;;4.13;2.20;;;;;;;;;;5048217;28;20025;-60
2023/01/20 02:15:42;;;;;;;4.27;1.93;;;;;;;;;;5050619;28;20026;-60
2023/01/20 02:18:17;;;;;;;7.43;3.40;;;;;;;;;;5035482;28;20484;-62
2023/01/20 02:20:43;;;;;;;4.57;2.67;;;;;;;;;;5031011;28;20060;-60
2023/01/20 02:23:24;;;;;;;10.63;2.47;;;;;;;;;;5033933;28;20021;-60
2023/01/20 02:25:57;;;;;;;4.43;2.70;;;;;;;;;;5032469;28;20037;-60
2023/01/20 02:28:23;;;;;;;9.60;3.70;;;;;;;;;;5028481;28;20028;-59
2023/01/20 02:31:09;;;;;;;2.50;1.73;;;;;;;;;;5032536;28;20083;-62
2023/01/20 02:33:35;;;;;;;;;;;;;;;;;;5048365;28;20025;-62
2023/01/20 02:36:05;;;;;;;6.67;2.60;;;;;;;;;;5051714;28;19915;-62
2023/01/20 02:38:31;;;;;;;7.50;1.70;;;;;;;;;;5035343;28;20071;-62
2023/01/20 02:41:06;;;;;;;3.80;3.00;;;;;;;;;;5035412;28;20030;-63
2023/01/20 02:43:36;;;;;;;4.05;2.33;;;;;;;;;;5043649;28;20381;-61
2023/01/20 02:46:03;;;;;;;2.80;1.90;;;;;;;;;;5028051;28;20076;-62
2023/01/20 02:48:51;;;;;;;5.20;2.47;;;;;;;;;;5015320;28;20508;-61
2023/01/20 02:51:20;;;;;;;4.47;2.00;;;;;;;;;;5030454;28;20465;-61
2023/01/20 02:53:53;;;;;;;5.33;1.40;;;;;;;;;;5046893;28;20390;-60
2023/01/20 02:56:21;;;;;;;5.73;2.17;;;;;;;;;;5052314;28;20066;-62
2023/01/20 02:58:50;;;;;;;5.17;3.27;;;;;;;;;;5034752;28;20026;-60
2023/01/20 03:01:30;;;;;;;4.23;2.70;;;;;;;;;;5032852;28;20431;-61
2023/01/20 03:03:58;;;;;;;3.73;1.80;;;;;;;;;;5044477;28;20033;-61
2023/01/20 03:06:26;;;;;;;4.47;3.03;;;;;;;;;;5027346;28;20099;-61
2023/01/20 03:08:55;;;;;;;2.00;1.53;;;;;;;;;;5027826;28;20536;-61
2023/01/20 03:11:22;;;;;;;2.20;1.60;;;;;;;;;;5027674;28;20384;-61
2023/01/20 03:13:57;;;;;;;11.60;3.13;;;;;;;;;;5042215;28;20104;-61
2023/01/20 03:16:25;;;;;;;19.93;3.27;;;;;;;;;;5042531;28;20029;-61
2023/01/20 03:18:51;;;;;;;3.40;1.93;;;;;;;;;;5050894;28;20029;-61
2023/01/20 03:21:19;;;;;;;4.50;2.60;;;;;;;;;;5048199;28;20511;-61
2023/01/20 03:23:50;;;;;;;3.83;2.50;;;;;;;;;;5042064;28;20038;-61
2023/01/20 03:26:18;;;;;;;5.00;2.93;;;;;;;;;;5032272;28;20029;-61
2023/01/20 03:28:45;;;;;;;4.80;2.30;;;;;;;;;;5027264;28;20029;-62
2023/01/20 03:31:30;;;;;;;2.70;2.10;;;;;;;;;;5027244;28;20049;-61
2023/01/20 03:33:58;;;;;;;5.18;2.50;;;;;;;;;;5039695;28;20024;-61
2023/01/20 03:36:26;;;;;;;9.27;2.90;;;;;;;;;;5032521;28;20087;-61
2023/01/20 03:38:53;;;;;;;4.13;2.83;;;;;;;;;;5032230;28;20033;-61
2023/01/20 03:41:30;;;;;;;8.17;2.50;;;;;;;;;;5037334;28;20468;-61
2023/01/20 03:44:03;;;;;;;3.43;2.30;;;;;;;;;;5042256;28;20033;-61
2023/01/20 03:46:38;;;;;;;2.53;2.00;;;;;;;;;;5044915;28;20037;-61
2023/01/20 03:49:05;;;;;;;4.27;2.23;;;;;;;;;;5030863;28;20075;-60
2023/01/20 03:51:38;;;;;;;8.67;2.80;;;;;;;;;;5034032;28;20031;-61
2023/01/20 03:54:08;;;;;;;1.87;1.20;;;;;;;;;;5045245;28;20100;-61
2023/01/20 03:56:41;;;;;;;1.70;1.40;;;;;;;;;;5046310;28;20040;-61
2023/01/20 03:59:10;;;;;;;4.47;2.53;;;;;;;;;;5047774;28;20028;-61
2023/01/20 04:01:38;;;;;;;3.73;2.40;;;;;;;;;;5054546;28;20498;-61
2023/01/20 04:04:07;;;;;;;2.87;1.70;;;;;;;;;;5056066;28;20124;-61
2023/01/20 04:06:34;;;;;;;2.67;1.73;;;;;;;;;;5055611;28;20036;-60
2023/01/20 04:09:04;;;;;;;7.17;3.53;;;;;;;;;;5056207;28;20542;-60
2023/01/20 04:11:31;;;;;;;5.90;2.33;;;;;;;;;;5053391;28;20442;-61
2023/01/20 04:13:58;;;;;;;4.10;1.97;;;;;;;;;;5050639;28;20025;-61
2023/01/20 04:16:25;;;;;;;1.90;1.23;;;;;;;;;;5044006;28;20396;-60
2023/01/20 04:18:52;;;;;;;2.23;1.60;;;;;;;;;;5033971;28;20048;-61
2023/01/20 04:21:25;;;;;;;1.97;1.20;;;;;;;;;;5051243;28;20082;-61
2023/01/20 04:23:59;;;;;;;2.97;1.90;;;;;;;;;;5048592;28;20041;-61
2023/01/20 04:26:26;;;;;;;7.68;2.45;;;;;;;;;;5054855;28;20029;-61
2023/01/20 04:28:53;;;;;;;20.00;2.73;;;;;;;;;;5052653;28;20021;-61
2023/01/20 04:31:19;;;;;;;1.50;1.37;;;;;;;;;;5054673;28;20052;-61
2023/01/20 04:33:46;;;;;;;2.90;1.53;;;;;;;;;;5054579;28;20082;-61
2023/01/20 04:36:13;;;;;;;2.10;1.87;;;;;;;;;;5042643;28;20369;-61
2023/01/20 04:38:39;;;;;;;2.70;2.00;;;;;;;;;;5030419;28;20072;-61
2023/01/20 04:41:06;;;;;;;2.50;1.93;;;;;;;;;;5030503;28;20029;-61
2023/01/20 04:43:33;;;;;;;5.20;1.73;;;;;;;;;;5031554;28;20113;-61
2023/01/20 04:46:00;;;;;;;3.83;2.40;;;;;;;;;;5048720;28;20032;-61
2023/01/20 04:48:26;;;;;;;4.03;1.77;;;;;;;;;;5047046;28;20030;-61
2023/01/20 04:50:53;;;;;;;4.03;2.73;;;;;;;;;;5043711;28;20033;-60
2023/01/20 04:53:20;;;;;;;3.90;2.27;;;;;;;;;;5047296;28;20018;-60
2023/01/20 04:55:46;;;;;;;3.40;1.80;;;;;;;;;;5054478;28;20384;-60
2023/01/20 04:58:13;;;;;;;2.23;1.57;;;;;;;;;;5030758;28;20557;-60
2023/01/20 05:00:41;;;;;;;2.90;2.10;;;;;;;;;;5030000;28;20020;-60
2023/01/20 05:03:07;;;;;;;3.73;2.30;;;;;;;;;;5029651;28;20443;-60
2023/01/20 05:05:34;;;;;;;6.57;1.67;;;;;;;;;;5029939;28;20022;-61
2023/01/20 05:08:03;;;;;;;3.13;2.00;;;;;;;;;;5034926;28;20437;-60
2023/01/20 05:10:31;;;;;;;3.97;1.20;;;;;;;;;;5054502;28;20040;-60
2023/01/20 05:12:58;;;;;;;0.80;0.77;;;;;;;;;;5053983;28;20025;-60
2023/01/20 05:15:25;;;;;;;2.43;1.63;;;;;;;;;;5053878;28;20502;-61
2023/01/20 05:17:52;;;;;;;3.20;1.67;;;;;;;;;;5049663;28;20033;-60
2023/01/20 05:20:19;;;;;;;1.93;1.40;;;;;;;;;;5050485;28;20380;-60
2023/01/20 05:22:47;;;;;;;2.87;1.87;;;;;;;;;;5047804;28;20391;-59
2023/01/20 05:25:13;;;;;;;3.10;2.13;;;;;;;;;;5060198;28;20030;-60
2023/01/20 05:27:40;;;;;;;3.13;2.33;;;;;;;;;;5058534;28;20375;-58
2023/01/20 05:30:07;;;;;;;3.37;2.30;;;;;;;;;;5058540;28;20031;-59
2023/01/20 05:32:34;;;;;;;1.47;1.10;;;;;;;;;;5061088;28;20025;-59
2023/01/20 05:35:01;;;;;;;2.30;1.90;;;;;;;;;;5074364;28;20467;-58
2023/01/20 05:37:28;;;;;;;5.60;2.40;;;;;;;;;;5044332;28;20029;-61
2023/01/20 05:39:54;;;;;;;4.27;2.80;;;;;;;;;;5036434;28;20030;-58
2023/01/20 05:42:21;;;;;;;4.20;2.47;;;;;;;;;;5029226;28;20013;-59
2023/01/20 05:44:48;;;;;;;4.50;2.37;;;;;;;;;;5029335;28;20380;-59
2023/01/20 05:47:15;;;;;;;9.50;1.83;;;;;;;;;;5045421;28;20148;-59
2023/01/20 05:49:41;;;;;;;4.07;2.17;;;;;;;;;;5049033;28;20021;-59
2023/01/20 05:52:08;;;;;;;2.63;2.03;;;;;;;;;;5052864;28;20380;-58
2023/01/20 05:54:35;;;;;;;1.50;1.23;;;;;;;;;;5053950;28;20049;-58
2023/01/20 05:57:04;;;;;;;9.93;2.57;;;;;;;;;;5054097;28;20376;-58
2023/01/20 05:59:31;;;;;;;2.90;1.80;;;;;;;;;;5054099;28;20017;-58
2023/01/20 06:01:57;;;;;;;2.40;1.60;;;;;;;;;;5053997;28;20021;-59
2023/01/20 06:04:24;;;;;;;2.33;1.80;;;;;;;;;;5045086;28;20028;-59
2023/01/20 06:06:51;;;;;;;3.67;2.53;;;;;;;;;;5028610;28;20037;-58
2023/01/20 06:09:17;;;;;;;11.83;3.20;;;;;;;;;;5028716;28;20103;-59
2023/01/20 06:11:44;;;;;;;3.50;2.00;;;;;;;;;;5028382;28;20026;-59
2023/01/20 06:14:11;;;;;;;2.70;2.27;;;;;;;;;;5032599;28;20029;-58
2023/01/20 06:16:37;;;;;;;3.47;2.47;;;;;;;;;;5033836;28;20033;-59
2023/01/20 06:19:04;;;;;;;5.83;2.00;;;;;;;;;;5033766;28;20074;-59
2023/01/20 06:21:31;;;;;;;3.93;2.40;;;;;;;;;;5033836;28;20391;-58
2023/01/20 06:23:57;;;;;;;2.07;1.80;;;;;;;;;;5033283;28;20057;-59
2023/01/20 06:26:24;;;;;;;3.37;2.00;;;;;;;;;;5029806;28;20021;-59
2023/01/20 06:28:51;;;;;;;4.73;2.90;;;;;;;;;;5028354;28;20450;-59
2023/01/20 06:31:17;;;;;;;6.67;2.07;;;;;;;;;;5028382;28;20420;-60
2023/01/20 06:33:44;;;;;;;11.13;3.33;;;;;;;;;;5028376;28;20029;-59
2023/01/20 06:36:16;;;;;;;2.00;1.50;;;;;;;;;;5049485;28;20423;-59
2023/01/20 06:38:47;;;;;;;2.57;2.10;;;;;;;;;;5053195;28;20021;-58
2023/01/20 06:41:14;;;;;;;1.60;1.40;;;;;;;;;;5053375;28;20053;-58
2023/01/20 06:43:40;;;;;;;2.33;1.67;;;;;;;;;;5053326;28;20562;-58
2023/01/20 06:46:09;;;;;;;6.97;2.60;;;;;;;;;;5053040;28;20021;-58
2023/01/20 06:48:36;;;;;;;2.07;1.83;;;;;;;;;;5049619;28;20472;-58
2023/01/20 06:51:07;;;;;;;5.77;2.27;;;;;;;;;;5048091;28;20112;-58
2023/01/20 06:53:34;;;;;;;7.00;2.17;;;;;;;;;;5047975;28;20017;-58
2023/01/20 06:56:01;;;;;;;3.03;2.07;;;;;;;;;;5047647;28;20027;-58
2023/01/20 06:58:29;;;;;;;2.63;1.77;;;;;;;;;;5050432;28;20029;-58
2023/01/20 07:00:57;;;;;;;2.97;1.90;;;;;;;;;;5052769;28;20379;-58
2023/01/20 07:03:24;;;;;;;8.23;2.63;;;;;;;;;;5052569;28;20069;-58
2023/01/20 07:05:53;;;;;;;9.77;1.97;;;;;;;;;;5037065;28;20534;-58
2023/01/20 07:08:20;;;;;;;1.70;1.27;;;;;;;;;;5032663;28;20041;-58
2023/01/20 07:10:47;;;;;;;2.73;1.83;;;;;;;;;;5029185;28;20100;-59
2023/01/20 07:13:13;;;;;;;2.83;1.87;;;;;;;;;;5027676;28;20541;-58
2023/01/20 07:15:40;;;;;;;3.37;2.33;;;;;;;;;;5027427;28;20017;-59
2023/01/20 07:18:07;;;;;;;3.50;2.17;;;;;;;;;;5027604;28;20082;-59
2023/01/20 07:20:33;;;;;;;1.87;1.63;;;;;;;;;;5029911;28;20052;-58
2023/01/20 07:23:01;;;;;;;2.73;1.93;;;;;;;;;;5032510;28;20381;-59
2023/01/20 07:25:27;;;;;;;2.77;2.07;;;;;;;;;;5032514;28;20021;-58
2023/01/20 07:27:56;;;;;;;4.57;2.00;;;;;;;;;;5032285;28;20075;-59
2023/01/20 07:30:23;;;;;;;2.27;1.77;;;;;;;;;;5032484;28;20111;-59
2023/01/20 07:32:50;;;;;;;2.10;1.57;;;;;;;;;;5029647;28;20030;-58
2023/01/20 07:35:17;;;;;;;2.70;1.80;;;;;;;;;;5039692;28;20082;-58
2023/01/20 07:37:44;;;;;;;1.73;1.50;;;;;;;;;;5046977;28;20110;-59
2023/01/20 07:40:11;;;;;;;3.63;2.37;;;;;;;;;;5047193;28;20029;-59
2023/01/20 07:42:38;;;;;;;1.93;1.50;;;;;;;;;;5049212;28;20043;-58
2023/01/20 07:45:05;;;;;;;3.13;1.80;;;;;;;;;;5052190;28;20025;-58
2023/01/20 07:47:32;;;;;;;2.50;2.07;;;;;;;;;;5052306;28;20108;-58
2023/01/20 07:49:58;;;;;;;1.93;1.73;;;;;;;;;;5052158;28;20029;-58
2023/01/20 07:52:25;;;;;;;3.33;2.30;;;;;;;;;;5052168;28;20108;-58
2023/01/20 07:54:52;;;;;;;1.93;1.73;;;;;;;;;;5049512;28;20087;-58
2023/01/20 07:57:18;;;;;;;8.60;2.70;;;;;;;;;;5047036;28;20321;-58
2023/01/20 07:59:45;;;;;;;3.57;2.30;;;;;;;;;;5046463;28;20035;-59
2023/01/20 08:02:12;;;;;;;2.60;2.07;;;;;;;;;;5046773;28;20104;-58
2023/01/20 08:04:39;;;;;;;3.03;2.37;;;;;;;;;;5040627;28;20030;-58
2023/01/20 08:07:05;;;;;;;2.73;1.97;;;;;;;;;;5032016;28;20093;-58
2023/01/20 08:09:32;;;;;;;2.80;2.40;;;;;;;;;;5032264;28;20440;-58
2023/01/20 08:12:00;;;;;;;3.30;2.13;;;;;;;;;;5031999;28;20049;-58
2023/01/20 08:14:27;;;;;;;4.30;3.03;;;;;;;;;;5031949;28;20148;-58
2023/01/20 08:16:54;;;;;;;8.57;2.80;;;;;;;;;;5029719;28;20030;-58
2023/01/20 08:19:20;;;;;;;3.57;2.23;;;;;;;;;;5026733;28;20029;-58
2023/01/20 08:21:47;;;;;;;2.83;2.03;;;;;;;;;;5026890;28;20033;-59
2023/01/20 08:24:14;;;;;;;4.30;3.03;;;;;;;;;;5026831;28;20112;-58
2023/01/20 08:26:40;;;;;;;6.03;2.40;;;;;;;;;;5028096;28;20079;-58
2023/01/20 08:29:09;;;;;;;4.37;2.27;;;;;;;;;;5031882;28;20496;-58
2023/01/20 08:31:36;;;;;;;4.57;2.27;;;;;;;;;;5031716;28;20030;-58
2023/01/20 08:34:02;;;;;;;6.87;2.30;;;;;;;;;;5036815;28;20474;-59
2023/01/20 08:36:31;;;;;;;5.80;3.03;;;;;;;;;;5051426;28;20025;-58
2023/01/20 08:38:58;;;;;;;3.33;2.60;;;;;;;;;;5050160;28;20028;-58
2023/01/20 08:41:27;;;;;;;10.03;2.73;;;;;;;;;;5046547;28;20388;-58
2023/01/20 08:43:54;;;;;;;3.93;1.93;;;;;;;;;;5046385;28;20104;-58
2023/01/20 08:46:21;;;;;;;5.77;2.67;;;;;;;;;;5046404;28;20544;-58
2023/01/20 08:48:49;;;;;;;1.23;1.07;;;;;;;;;;5050046;28;20028;-58
2023/01/20 08:51:20;;;;;;;5.30;3.10;;;;;;;;;;5055472;28;20495;-58
2023/01/20 08:53:47;;;;;;;10.50;3.23;;;;;;;;;;5055221;28;20096;-59
2023/01/20 08:56:14;;;;;;;3.90;1.80;;;;;;;;;;5055312;28;20040;-58
2023/01/20 08:58:41;;;;;;;1.40;1.30;;;;;;;;;;5055318;28;20357;-58
2023/01/20 09:01:08;;;;;;;1.30;1.10;;;;;;;;;;5053598;28;20250;-58
2023/01/20 09:03:35;;;;;;;5.00;2.57;;;;;;;;;;5030599;28;20033;-58
2023/01/20 09:06:03;;;;;;;3.17;1.87;;;;;;;;;;5030118;28;20270;-59
2023/01/20 09:08:30;;;;;;;2.77;1.93;;;;;;;;;;5029802;28;20052;-58
2023/01/20 09:11:04;;;;;;;2.80;1.67;;;;;;;;;;5030615;28;20480;-58
2023/01/20 09:13:30;;;;;;;3.03;1.47;;;;;;;;;;5034911;28;20282;-58
2023/01/20 09:15:57;;;;;;;1.80;1.67;;;;;;;;;;5035044;28;20259;-58
2023/01/20 09:18:24;;;;;;;3.40;2.23;;;;;;;;;;5034298;28;20263;-58
2023/01/20 09:20:50;;;;;;;1.53;1.10;;;;;;;;;;5034820;28;20263;-58
2023/01/20 09:23:17;;;;;;;4.30;2.27;;;;;;;;;;5033363;28;20287;-58
2023/01/20 09:25:44;;;;;;;2.20;1.77;;;;;;;;;;5029627;28;20661;-58
2023/01/20 09:28:12;;;;;;;7.13;3.33;;;;;;;;;;5029569;28;20625;-58
2023/01/20 09:30:39;;;;;;;2.83;2.13;;;;;;;;;;5029503;28;20255;-58
2023/01/20 09:33:05;;;;;;;3.03;1.83;;;;;;;;;;5043685;28;20733;-58
2023/01/20 09:35:32;;;;;;;2.10;1.90;;;;;;;;;;5054376;28;20794;-58
2023/01/20 09:43:53;;;;;;;4.00;2.60;;;;;;;;;;5054341;28;20044;-58
2023/01/20 09:46:23;;;;;;;1.63;1.45;;;;;;;;;;5051289;28;20265;-58
2023/01/20 09:54:43;;;;;;;3.13;2.00;;;;;;;;;;5048983;28;20759;-58
2023/01/20 09:57:11;;;;;;;6.60;2.90;;;;;;;;;;5053477;28;20261;-58
2023/01/20 09:59:44;;;;;;;2.50;2.00;;;;;;;;;;5048118;28;20276;-58
2023/01/20 10:02:28;;;;;;;3.90;2.73;;;;;;;;;;5033984;28;20251;-57
2023/01/20 10:04:58;;;;;;;2.43;2.07;;;;;;;;;;5033987;28;20263;-58
2023/01/20 10:07:32;;;;;;;5.73;3.10;;;;;;;;;;5033159;28;20278;-57
2023/01/20 10:10:03;;;;;;;3.60;2.77;;;;;;;;;;5028660;28;20341;-58
2023/01/20 10:12:30;;;;;;;4.17;2.90;;;;;;;;;;5028784;28;20259;-58
2023/01/20 10:15:14;;;;;;;3.10;2.27;;;;;;;;;;5028648;28;20255;-58
2023/01/20 10:17:49;;;;;;;3.35;1.90;;;;;;;;;;5029835;28;20262;-57
2023/01/20 10:20:35;;;;;;;2.90;2.53;;;;;;;;;;5033850;28;20427;-57
2023/01/20 10:23:14;;;;;;;2.50;2.30;;;;;;;;;;5023318;28;20291;-57
2023/01/20 10:25:44;;;;;;;4.27;2.63;;;;;;;;;;5033642;28;20300;-58
2023/01/20 10:28:22;;;;;;;2.40;2.13;;;;;;;;;;5033545;28;20312;-58
2023/01/20 10:30:49;;;;;;;3.00;2.43;;;;;;;;;;5030486;28;20305;-58
2023/01/20 10:33:21;;;;;;;2.40;2.03;;;;;;;;;;5028446;28;20811;-58
2023/01/20 10:35:51;;;;;;;3.43;3.13;;;;;;;;;;5028303;28;20263;-58
2023/01/20 10:38:24;;;;;;;2.87;2.13;;;;;;;;;;5028238;28;20255;-58
2023/01/20 10:40:57;;;;;;;4.90;3.07;;;;;;;;;;5031432;28;20251;-58
2023/01/20 10:43:23;;;;;;;2.67;1.93;;;;;;;;;;5033344;28;20278;-57
2023/01/20 10:45:50;;;;;;;2.13;1.80;;;;;;;;;;5032952;28;20294;-58
2023/01/20 10:48:17;;;;;;;2.00;1.60;;;;;;;;;;5033052;28;20255;-58
2023/01/20 10:50:43;;;;;;;2.43;2.00;;;;;;;;;;5033424;28;20718;-58
2023/01/20 10:53:21;;;;;;;3.63;2.77;;;;;;;;;;5029453;28;20265;-58
2023/01/20 10:55:55;;;;;;;2.63;1.97;;;;;;;;;;5027777;28;20283;-58
2023/01/20 10:58:30;;;;;;;2.03;1.83;;;;;;;;;;5027603;28;20254;-57
2023/01/20 11:00:59;;;;;;;3.80;2.13;;;;;;;;;;5027803;28;20059;-58
2023/01/20 11:03:27;;;;;;;3.07;2.30;;;;;;;;;;5031570;28;20038;-58
2023/01/20 11:05:54;;;;;;;6.07;1.63;;;;;;;;;;5032951;28;20259;-58
2023/01/20 11:08:22;;;;;;;3.07;2.10;;;;;;;;;;5032904;28;20324;-57
2023/01/20 11:10:51;;;;;;;2.80;2.10;;;;;;;;;;5032004;28;20349;-58
2023/01/20 11:13:18;;;;;;;2.43;1.90;;;;;;;;;;5032658;28;20262;-57
2023/01/20 11:15:46;;;;;;;2.77;2.23;;;;;;;;;;5028355;28;20263;-57
2023/01/20 11:18:16;;;;;;;2.07;1.63;;;;;;;;;;5027360;28;20370;-57
2023/01/20 11:20:45;;;;;;;4.50;2.60;;;;;;;;;;5027594;28;20273;-57
2023/01/20 11:23:23;;;;;;;2.37;1.63;;;;;;;;;;5027190;28;20290;-58
2023/01/20 11:25:57;;;;;;;2.30;2.10;;;;;;;;;;5031385;28;20269;-58
2023/01/20 11:28:24;;;;;;;2.50;2.23;;;;;;;;;;5033952;28;20250;-58
2023/01/20 11:30:55;;;;;;;4.23;2.97;;;;;;;;;;5052458;28;20262;-57
2023/01/20 11:33:22;;;;;;;3.33;2.23;;;;;;;;;;5052577;28;20755;-57
2023/01/20 11:36:06;;;;;;;3.40;2.57;;;;;;;;;;5052186;28;20751;-57
2023/01/20 11:38:43;;;;;;;1.98;1.83;;;;;;;;;;5047212;28;20254;-58
2023/01/20 11:41:20;;;;;;;6.17;2.33;;;;;;;;;;5047097;28;20100;-58
2023/01/20 11:43:47;;;;;;;3.27;2.97;;;;;;;;;;5046878;28;20282;-58
2023/01/20 11:46:21;;;;;;;6.83;2.90;;;;;;;;;;5047131;28;20296;-57
2023/01/20 11:48:48;;;;;;;5.10;2.03;;;;;;;;;;5052295;28;20286;-57
2023/01/20 11:51:24;;;;;;;2.40;2.07;;;;;;;;;;5052039;28;20400;-58
2023/01/20 11:53:51;;;;;;;3.53;2.30;;;;;;;;;;5051876;28;20763;-58
2023/01/20 11:56:25;;;;;;;1.67;1.33;;;;;;;;;;5052015;28;20254;-57
2023/01/20 11:58:53;;;;;;;9.23;3.50;;;;;;;;;;5045148;28;20259;-57
2023/01/20 12:01:25;;;;;;;2.43;2.17;;;;;;;;;;5026948;28;20659;-57
2023/01/20 12:04:03;;;;;;;6.17;2.40;;;;;;;;;;5027178;28;20294;-57
2023/01/20 12:06:33;;;;;;;2.03;1.27;;;;;;;;;;5026950;28;20792;-57
2023/01/20 12:09:05;;;;;;;1.33;1.10;;;;;;;;;;5028260;28;20301;-57
2023/01/20 12:11:40;;;;;;;4.83;2.43;;;;;;;;;;5032300;28;20673;-57
2023/01/20 12:14:19;;;;;;;;;;;;;;;;;;5032499;28;20286;-58
2023/01/20 12:16:48;;;;;;;3.70;2.13;;;;;;;;;;5031635;28;20410;-58
2023/01/20 12:19:18;;;;;;;2.00;1.63;;;;;;;;;;5032100;28;20297;-58
2023/01/20 12:21:48;;;;;;;4.27;2.93;;;;;;;;;;5030513;28;20282;-58
2023/01/20 12:25:06;;;;;;;2.03;1.73;;;;;;;;;;5030575;28;20765;-57
2023/01/20 12:27:20;;;;;;;8.17;3.27;;;;;;;;;;5030368;28;20321;-57
2023/01/20 12:29:47;;;;;;;2.33;1.67;;;;;;;;;;5043251;28;20660;-57
2023/01/20 12:32:14;;;;;;;3.60;2.40;;;;;;;;;;5050742;28;20269;-57
2023/01/20 12:34:41;;;;;;;6.57;3.30;;;;;;;;;;5055772;28;20320;-57
2023/01/20 12:37:08;;;;;;;2.53;2.27;;;;;;;;;;5055842;28;20665;-57
2023/01/20 12:39:35;;;;;;;4.67;2.50;;;;;;;;;;5055030;28;20258;-58
2023/01/20 12:42:10;;;;;;;4.93;2.47;;;;;;;;;;5055496;28;20262;-58
2023/01/20 12:44:56;;;;;;;2.87;2.27;;;;;;;;;;5050767;28;20278;-57
2023/01/20 12:47:35;;;;;;;3.58;2.78;;;;;;;;;;5050176;28;20282;-58
2023/01/20 12:50:20;;;;;;;3.13;2.73;;;;;;;;;;5050262;28;20029;-57
2023/01/20 12:53:11;;;;;;;1.85;1.48;;;;;;;;;;5050415;28;20246;-57
2023/01/20 12:55:51;;;;;;;6.73;3.40;;;;;;;;;;5055034;28;20028;-58
2023/01/20 12:58:29;;;;;;;5.43;4.37;;;;;;;;;;5055325;28;20264;-57
2023/01/20 13:00:59;;;;;;;17.97;3.47;;;;;;;;;;5054962;28;20260;-58
2023/01/20 13:03:37;;;;;;;2.23;2.03;;;;;;;;;;5040302;28;20377;-57
2023/01/20 13:06:22;;;;;;;4.47;2.27;;;;;;;;;;5032640;28;20263;-59
2023/01/20 13:08:48;;;;;;;5.28;3.60;;;;;;;;;;5029927;28;20700;-57
2023/01/20 13:11:30;;;;;;;3.87;2.63;;;;;;;;;;5029603;28;20376;-57
2023/01/20 13:14:14;;;;;;;3.87;2.77;;;;;;;;;;5029875;28;20263;-57
2023/01/20 13:16:40;;;;;;;6.70;3.20;;;;;;;;;;5033512;28;20270;-57
2023/01/20 13:19:13;;;;;;;3.37;2.47;;;;;;;;;;5034735;28;20260;-57
2023/01/20 13:21:41;;;;;;;4.33;2.77;;;;;;;;;;5034812;28;20259;-57
2023/01/20 13:24:17;;;;;;;1.77;1.60;;;;;;;;;;5034846;28;20298;-57
2023/01/20 13:26:45;;;;;;;4.00;2.90;;;;;;;;;;5034899;28;20269;-57
2023/01/20 13:29:22;;;;;;;9.07;3.17;;;;;;;;;;5029952;28;20259;-57
2023/01/20 13:31:52;;;;;;;3.37;2.10;;;;;;;;;;5043536;28;20270;-57
2023/01/20 13:34:21;;;;;;;2.37;1.83;;;;;;;;;;5048250;28;20816;-57
2023/01/20 13:37:17;;;;;;;2.80;1.80;;;;;;;;;;5047490;28;20700;-57
2023/01/20 13:39:43;;;;;;;2.15;1.83;;;;;;;;;;5053552;28;20281;-58
2023/01/20 13:42:28;;;;;;;1.97;1.57;;;;;;;;;;5053841;28;20413;-57
2023/01/20 13:45:14;;;;;;;3.10;1.73;;;;;;;;;;5054476;28;20819;-57
2023/01/20 13:47:46;;;;;;;2.00;1.83;;;;;;;;;;5054124;28;20052;-58
2023/01/20 13:50:22;;;;;;;8.87;2.63;;;;;;;;;;5052199;28;20032;-57
2023/01/20 13:52:52;;;;;;;3.87;2.93;;;;;;;;;;5048727;28;20273;-57
2023/01/20 13:55:31;;;;;;;3.10;2.50;;;;;;;;;;5048776;28;20296;-57
2023/01/20 13:57:58;;;;;;;4.67;2.67;;;;;;;;;;5048697;28;20294;-57
2023/01/20 14:00:24;;;;;;;21.97;6.37;;;;;;;;;;5050912;28;20793;-58
2023/01/20 14:02:51;;;;;;;6.10;4.33;;;;;;;;;;5052618;28;20336;-57
2023/01/20 14:05:26;;;;;;;37.27;7.17;;;;;;;;;;5053894;28;20254;-58
2023/01/20 14:07:52;;;;;;;4.57;3.30;;;;;;;;;;5053705;28;20360;-58
2023/01/20 14:10:19;;;;;;;7.67;3.30;;;;;;;;;;5053411;28;20387;-58
2023/01/20 14:12:46;;;;;;;43.37;5.57;;;;;;;;;;5050946;28;20349;-58
2023/01/20 14:15:31;;;;;;;9.07;3.00;;;;;;;;;;5048592;28;20259;-58
2023/01/20 14:17:58;;;;;;;22.13;3.30;;;;;;;;;;5048669;28;20578;-58
2023/01/20 14:20:26;;;;;;;10.50;4.47;;;;;;;;;;5048477;28;20065;-57
2023/01/20 14:22:52;;;;;;;5.43;3.27;;;;;;;;;;5050831;28;20266;-58
2023/01/20 14:25:26;;;;;;;55.63;4.73;;;;;;;;;;5053446;28;20319;-58
2023/01/20 14:27:53;;;;;;;16.23;4.10;;;;;;;;;;5053569;28;20021;-58
2023/01/20 14:30:23;;;;;;;51.23;3.73;;;;;;;;;;5053520;28;20032;-57
2023/01/20 14:32:51;;;;;;;6.23;2.57;;;;;;;;;;5034915;28;20349;-59
2023/01/20 14:35:29;;;;;;;3.60;2.70;;;;;;;;;;5029818;28;21321;-58
2023/01/20 14:37:56;;;;;;;10.93;3.17;;;;;;;;;;5028177;28;20047;-58
2023/01/20 14:40:25;;;;;;;4.53;2.50;;;;;;;;;;5029029;28;20030;-58
2023/01/20 14:43:15;;;;;;;5.50;2.03;;;;;;;;;;5027909;28;20057;-58
2023/01/20 14:45:43;;;;;;;5.87;2.40;;;;;;;;;;5023241;28;20128;-58
2023/01/20 14:48:10;;;;;;;2.70;2.27;;;;;;;;;;5033223;28;20477;-58
2023/01/20 14:50:41;;;;;;;2.57;1.37;;;;;;;;;;5033131;28;20021;-58
2023/01/20 14:53:12;;;;;;;4.13;2.43;;;;;;;;;;5033365;28;20048;-58
2023/01/20 14:55:42;;;;;;;5.27;2.87;;;;;;;;;;5050713;28;20108;-58
2023/01/20 14:58:14;;;;;;;4.17;2.40;;;;;;;;;;5047829;28;20532;-58
2023/01/20 15:00:46;;;;;;;3.13;1.93;;;;;;;;;;5047248;28;20025;-58
2023/01/20 15:03:13;;;;;;;6.37;3.00;;;;;;;;;;5047446;28;20124;-58
2023/01/20 15:05:53;;;;;;;5.90;3.50;;;;;;;;;;5047513;28;20438;-58
2023/01/20 15:08:28;;;;;;;5.77;3.90;;;;;;;;;;5052661;28;20056;-59